Time;durP1;ratioP1;P1;durP2;ratioP2;P2;SDS_P1;SDS_P2;PMS_P1;PMS_P2;Temp;Humidity;BMP_temperature;BMP_pressure;BME280_temperature;BME280_humidity;BME280_pressure;Samples;Min_cycle;Max_cycle;Signal;HPM_P1;HPM_P2
2022/05/18 00:00:00;;;;;;;;;7.25;7.25;;;;;26.34;37.89;101277.94;4935748;28;45386;-47
2022/05/18 00:02:26;;;;;;;;;6.75;6.75;;;;;26.32;38.04;101284.41;4923612;28;45177;-43
2022/05/18 00:04:52;;;;;;;;;9.00;8.00;;;;;26.25;38.21;101282.16;4923764;28;45487;-44
2022/05/18 00:07:18;;;;;;;;;6.75;6.75;;;;;26.20;38.11;101284.34;4923657;28;45339;-42
2022/05/18 00:09:43;;;;;;;;;8.75;8.00;;;;;26.16;38.20;101296.28;4923886;28;45264;-45
2022/05/18 00:12:10;;;;;;;;;10.25;9.00;;;;;26.12;38.33;101294.78;4923662;28;45359;-46
2022/05/18 00:14:36;;;;;;;;;10.50;7.25;;;;;26.07;38.42;101308.56;4923680;28;45427;-43
2022/05/18 00:17:04;;;;;;;;;8.00;8.00;;;;;26.02;37.86;101301.75;4923109;28;45514;-44
2022/05/18 00:19:31;;;;;;;;;11.00;8.25;;;;;25.99;38.49;101310.91;4931765;28;45256;-45
2022/05/18 00:21:57;;;;;;;;;7.00;7.00;;;;;25.95;37.94;101302.19;4910650;28;45794;-44
2022/05/18 00:24:22;;;;;;;;;6.00;5.25;;;;;25.91;38.51;101298.00;4923334;28;45335;-44
2022/05/18 00:26:48;;;;;;;;;5.00;5.00;;;;;25.89;38.12;101299.09;4923438;28;45284;-43
2022/05/18 00:29:13;;;;;;;;;6.00;6.00;;;;;25.85;38.49;101295.75;4906628;28;45613;-48
2022/05/18 00:31:41;;;;;;;;;9.00;6.75;;;;;25.84;38.16;101307.47;4918897;28;45742;-44
2022/05/18 00:34:07;;;;;;;;;8.75;7.50;;;;;25.81;38.39;101302.31;4923211;28;45621;-44
2022/05/18 00:36:32;;;;;;;;;7.75;6.00;;;;;25.79;38.33;101301.56;4922062;28;45266;-46
2022/05/18 00:38:57;;;;;;;;;6.75;5.25;;;;;25.76;38.69;101310.72;4924133;28;45265;-44
2022/05/18 00:41:23;;;;;;;;;6.00;6.00;;;;;25.73;38.42;101310.06;4923347;28;45404;-43
2022/05/18 00:43:51;;;;;;;;;5.25;5.25;;;;;25.69;38.66;101320.16;4929721;28;46144;-46
2022/05/18 00:46:17;;;;;;;;;6.00;5.25;;;;;25.64;38.70;101317.78;4925208;28;45236;-43
2022/05/18 00:48:43;;;;;;;;;6.00;6.00;;;;;25.60;38.41;101320.81;4922214;28;45295;-44
2022/05/18 00:51:32;;;;;;;;;8.25;6.50;;;;;25.57;38.63;101327.28;4923299;28;45341;-44
2022/05/18 00:54:12;;;;;;;;;4.00;4.00;;;;;25.52;39.06;101329.41;4922098;28;45518;-44
2022/05/18 00:56:45;;;;;;;;;6.00;5.00;;;;;25.49;39.02;101326.91;4923016;28;45342;-44
2022/05/18 00:59:18;;;;;;;;;6.00;4.00;;;;;25.47;38.84;101332.41;4923282;28;45458;-42
2022/05/18 01:01:44;;;;;;;;;8.25;7.25;;;;;25.45;38.86;101334.31;4922667;28;45201;-43
2022/05/18 01:04:13;;;;;;;;;7.50;6.00;;;;;25.43;39.00;101336.28;4905743;28;45642;-46
2022/05/18 01:06:51;;;;;;;;;6.50;6.00;;;;;25.41;39.35;101342.72;4930577;28;45381;-44
2022/05/18 01:09:16;;;;;;;;;5.25;5.25;;;;;25.37;39.04;101336.69;4926434;28;45259;-46
2022/05/18 01:11:41;;;;;;;;;7.25;6.75;;;;;25.34;39.35;101336.84;4905748;28;45326;-44
2022/05/18 01:14:13;;;;;;;;;8.00;7.50;;;;;25.33;39.52;101345.03;4922774;28;46045;-46
2022/05/18 01:16:39;;;;;;;;;6.00;6.00;;;;;25.31;39.61;101350.53;4922812;28;45458;-47
2022/05/18 01:19:12;;;;;;;;;7.25;5.50;;;;;25.26;39.45;101345.44;4935173;28;45324;-47
2022/05/18 01:21:49;;;;;;;;;9.25;8.00;;;;;25.24;39.68;101349.19;4905622;28;45324;-46
2022/05/18 01:24:28;;;;;;;;;6.75;6.75;;;;;25.22;39.94;101348.44;4922319;28;46137;-48
2022/05/18 01:26:54;;;;;;;;;7.75;7.00;;;;;25.20;39.52;101353.06;4922344;28;45252;-48
2022/05/18 01:29:23;;;;;;;;;5.00;5.00;;;;;25.19;39.64;101357.56;4931099;28;45312;-45
2022/05/18 01:32:01;;;;;;;;;7.00;7.00;;;;;25.19;39.55;101356.72;4926264;28;45279;-43
2022/05/18 01:34:30;;;;;;;;;9.00;6.00;;;;;25.18;39.58;101355.84;4922772;28;45332;-43
2022/05/18 01:36:56;;;;;;;;;9.25;7.00;;;;;25.17;40.13;101353.25;4922271;28;45161;-43
2022/05/18 01:39:32;;;;;;;;;5.50;5.50;;;;;25.14;40.05;101357.00;4922478;28;45428;-43
2022/05/18 01:42:00;;;;;;;;;6.50;6.50;;;;;25.14;40.12;101360.56;4922252;28;45471;-44
2022/05/18 01:44:26;;;;;;;;;7.00;6.00;;;;;25.14;40.00;101362.38;4922269;28;46397;-43
2022/05/18 01:46:52;;;;;;;;;6.50;5.50;;;;;25.11;40.15;101368.81;4922005;28;45316;-45
2022/05/18 01:49:18;;;;;;;;;7.25;7.25;;;;;25.06;40.18;101359.34;4905479;28;45450;-45
2022/05/18 01:51:47;;;;;;;;;8.25;4.00;;;;;25.05;40.40;101376.44;4926951;28;45600;-45
2022/05/18 01:54:13;;;;;;;;;6.00;6.00;;;;;25.05;40.11;101374.59;4920616;28;45503;-45
2022/05/18 01:56:38;;;;;;;;;6.50;6.00;;;;;25.02;40.20;101371.25;4905030;28;45464;-46
2022/05/18 01:59:04;;;;;;;;;6.25;6.00;;;;;24.97;40.34;101361.66;4922396;28;45481;-43
2022/05/18 02:01:30;;;;;;;;;6.75;6.00;;;;;24.95;40.42;101352.84;4907885;28;45334;-44
2022/05/18 02:03:56;;;;;;;;;8.00;7.00;;;;;24.91;40.56;101362.06;4908069;28;47144;-44
2022/05/18 02:06:22;;;;;;;;;6.50;6.50;;;;;24.89;40.18;101352.38;4925707;28;45454;-44
2022/05/18 02:08:47;;;;;;;;;6.25;5.00;;;;;24.87;40.62;101359.66;4925704;28;45433;-43
2022/05/18 02:11:15;;;;;;;;;8.00;6.00;;;;;24.85;40.37;101365.16;4925595;28;45508;-43
2022/05/18 02:13:40;;;;;;;;;7.50;7.00;;;;;24.85;40.46;101367.00;4908271;28;48172;-45
2022/05/18 02:16:06;;;;;;;;;6.25;5.50;;;;;24.83;40.85;101372.47;4908421;28;45352;-43
2022/05/18 02:18:31;;;;;;;;;5.50;5.50;;;;;24.80;40.47;101373.53;4925454;28;45324;-42
2022/05/18 02:20:57;;;;;;;;;2.50;2.50;;;;;24.74;40.88;101373.03;4925556;28;45371;-44
2022/05/18 02:23:23;;;;;;;;;7.25;7.00;;;;;24.76;40.90;101389.94;4908072;28;46001;-45
2022/05/18 02:25:48;;;;;;;;;8.50;7.25;;;;;24.74;40.73;101386.47;4925129;28;46615;-42
2022/05/18 02:28:13;;;;;;;;;9.25;6.25;;;;;24.71;40.66;101390.22;4925350;28;45287;-42
2022/05/18 02:30:39;;;;;;;;;6.75;6.75;;;;;24.66;41.24;101395.88;4925459;28;45267;-42
2022/05/18 02:33:04;;;;;;;;;6.50;6.50;;;;;24.63;41.12;101400.59;4907712;28;45391;-43
2022/05/18 02:35:30;;;;;;;;;9.00;8.25;;;;;24.54;41.24;101402.03;4932339;28;45452;-45
2022/05/18 02:37:56;;;;;;;;;7.75;7.00;;;;;24.52;41.11;101408.47;4930833;28;45435;-46
2022/05/18 02:40:21;;;;;;;;;7.75;6.00;;;;;24.43;41.31;101412.59;4924927;28;45396;-45
2022/05/18 02:42:47;;;;;;;;;6.00;6.00;;;;;24.39;41.49;101422.66;4924941;28;46543;-45
2022/05/18 02:45:12;;;;;;;;;7.00;6.00;;;;;24.32;41.54;101418.59;4924822;28;45262;-43
2022/05/18 02:47:38;;;;;;;;;7.00;7.00;;;;;24.24;41.65;101419.09;4925200;28;45285;-45
2022/05/18 02:50:04;;;;;;;;;6.25;6.25;;;;;24.18;41.89;101430.19;4937775;28;45554;-45
2022/05/18 02:52:31;;;;;;;;;6.25;6.25;;;;;24.13;42.07;101435.00;4907391;28;47205;-42
2022/05/18 02:57:41;;;;;;;;;5.50;5.50;;;;;24.01;42.11;101442.81;4924927;28;45224;-46
2022/05/18 03:00:07;;;;;;;;;12.00;10.00;;;;;23.93;42.13;101434.34;4924869;28;45485;-45
2022/05/18 03:02:33;;;;;;;;;9.00;7.75;;;;;23.89;42.09;101442.66;4923126;28;47206;-44
2022/05/18 03:04:58;;;;;;;;;7.00;7.00;;;;;23.86;42.39;101438.31;4924714;28;45256;-46
2022/05/18 03:07:24;;;;;;;;;7.75;6.00;;;;;23.80;42.53;101428.81;4924887;28;45265;-45
2022/05/18 03:09:49;;;;;;;;;5.75;5.75;;;;;23.76;42.45;101429.09;4907506;28;45499;-45
2022/05/18 03:12:15;;;;;;;;;4.00;4.00;;;;;23.70;42.52;101443.75;4923757;28;46289;-46
2022/05/18 03:14:40;;;;;;;;;5.75;5.75;;;;;23.63;42.64;101443.22;4924738;28;45284;-42
2022/05/18 03:17:05;;;;;;;;;5.00;5.00;;;;;23.58;42.94;101439.09;4924409;28;45357;-47
2022/05/18 03:19:31;;;;;;;;;5.75;5.75;;;;;23.52;42.81;101437.63;4924753;28;45498;-43
2022/05/18 03:24:40;;;;;;;;;6.25;5.25;;;;;23.45;42.95;101434.44;4924315;28;45252;-46
2022/05/18 03:27:06;;;;;;;;;6.75;6.75;;;;;23.40;42.60;101431.16;4924098;28;45513;-44
2022/05/18 03:29:32;;;;;;;;;8.25;6.50;;;;;23.39;42.99;101441.97;4924495;28;45479;-45
2022/05/18 03:31:57;;;;;;;;;5.00;5.00;;;;;23.36;42.72;101446.56;4923920;28;46105;-44
2022/05/18 03:34:23;;;;;;;;;6.50;6.50;;;;;23.33;42.82;101444.06;4924298;28;45241;-44
2022/05/18 03:36:49;;;;;;;;;5.75;4.50;;;;;23.30;42.98;101457.63;4924316;28;45261;-44
2022/05/18 03:39:15;;;;;;;;;7.00;4.50;;;;;23.28;42.77;101466.72;4924304;28;45386;-46
2022/05/18 03:41:40;;;;;;;;;4.00;4.00;;;;;23.25;42.75;101461.53;4924137;28;46070;-45
2022/05/18 03:44:07;;;;;;;;;3.50;3.25;;;;;23.18;43.03;101469.91;4924139;28;45332;-45
2022/05/18 03:46:32;;;;;;;;;3.75;3.75;;;;;23.11;43.09;101459.59;4924194;28;45413;-43
2022/05/18 03:48:59;;;;;;;;;2.25;2.00;;;;;23.09;42.77;101470.38;4924188;28;45318;-46
2022/05/18 03:51:25;;;;;;;;;5.25;4.25;;;;;23.05;43.03;101475.03;4923970;28;46745;-42
2022/05/18 03:53:51;;;;;;;;;3.00;2.75;;;;;23.00;42.94;101482.47;4923208;28;45432;-43
2022/05/18 03:56:16;;;;;;;;;5.75;3.25;;;;;22.96;42.83;101486.28;4924026;28;45275;-45
2022/05/18 03:58:42;;;;;;;;;6.75;3.00;;;;;22.92;43.06;101494.56;4924099;28;45534;-42
2022/05/18 04:01:08;;;;;;;;;4.00;4.00;;;;;22.88;42.91;101492.06;4906683;28;47316;-42
2022/05/18 04:03:41;;;;;;;;;3.75;3.00;;;;;22.82;43.21;101495.06;4923623;28;45381;-44
2022/05/18 04:06:08;;;;;;;;;3.00;3.00;;;;;22.81;42.87;101497.84;4923829;28;46162;-47
2022/05/18 04:08:33;;;;;;;;;2.00;2.00;;;;;22.76;43.18;101503.44;4923874;28;45509;-42
2022/05/18 04:10:58;;;;;;;;;4.00;4.00;;;;;22.68;43.28;101503.84;4923433;28;46237;-44
2022/05/18 04:13:25;;;;;;;;;5.75;5.75;;;;;22.59;43.02;101503.47;4923979;28;45273;-46
2022/05/18 04:15:51;;;;;;;;;5.25;5.25;;;;;22.54;43.14;101509.06;4923667;28;45259;-47
2022/05/18 04:18:17;;;;;;;;;0.00;0.00;;;;;22.49;42.84;101513.78;4923625;28;45406;-43
2022/05/18 04:20:43;;;;;;;;;3.00;3.00;;;;;22.46;42.91;101513.97;4923349;28;45332;-46
2022/05/18 04:23:09;;;;;;;;;3.25;3.25;;;;;22.44;42.98;101515.84;4906404;28;45744;-43
2022/05/18 04:25:36;;;;;;;;;2.00;2.00;;;;;22.40;42.80;101518.69;4923365;28;45481;-43
2022/05/18 04:28:03;;;;;;;;;2.25;2.25;;;;;22.35;43.25;101514.47;4923521;28;45257;-46
2022/05/18 04:30:29;;;;;;;;;2.25;2.00;;;;;22.34;42.90;101518.97;4910705;28;46120;-43
2022/05/18 04:32:55;;;;;;;;;2.50;2.50;;;;;22.32;43.25;101518.19;4923151;28;45256;-43
2022/05/18 04:35:23;;;;;;;;;1.00;1.00;;;;;22.27;43.32;101520.22;4923539;28;45372;-42
2022/05/18 04:37:49;;;;;;;;;4.25;2.75;;;;;22.25;43.07;101522.13;4906005;28;45861;-44
2022/05/18 04:40:14;;;;;;;;;4.00;1.75;;;;;22.22;43.01;101525.81;4922892;28;46217;-47
2022/05/18 04:42:40;;;;;;;;;5.00;4.00;;;;;22.18;43.23;101520.72;4923278;28;45386;-46
2022/05/18 04:45:08;;;;;;;;;2.00;2.00;;;;;22.14;43.04;101522.69;4906035;28;46095;-45
2022/05/18 04:47:33;;;;;;;;;1.50;1.50;;;;;22.10;43.33;101528.25;4923136;28;45538;-42
2022/05/18 04:49:58;;;;;;;;;3.00;2.75;;;;;22.07;43.06;101530.16;4922957;28;45197;-44
2022/05/18 04:52:24;;;;;;;;;1.00;1.00;;;;;22.05;43.21;101533.84;4921967;28;45410;-43
2022/05/18 04:54:50;;;;;;;;;3.75;1.25;;;;;22.05;43.29;101536.53;4922988;28;45348;-43
2022/05/18 04:57:16;;;;;;;;;2.50;2.50;;;;;22.02;42.91;101532.16;4922902;28;45174;-45
2022/05/18 04:59:42;;;;;;;;;2.00;2.00;;;;;22.01;43.23;101541.16;4905693;28;47199;-44
2022/05/18 05:02:08;;;;;;;;;2.00;2.00;;;;;21.99;43.49;101553.75;4922633;28;45320;-42
2022/05/18 05:04:35;;;;;;;;;2.00;1.75;;;;;21.99;43.35;101558.25;4922926;28;45436;-42
2022/05/18 05:07:00;;;;;;;;;2.25;2.00;;;;;21.97;43.22;101566.31;4923069;28;45325;-42
2022/05/18 05:09:26;;;;;;;;;2.00;2.00;;;;;21.96;43.20;101564.63;4922358;28;45339;-45
2022/05/18 05:11:52;;;;;;;;;4.00;1.50;;;;;21.97;43.37;101562.78;4922891;28;45268;-46
2022/05/18 05:14:18;;;;;;;;;0.00;0.00;;;;;21.96;42.82;101572.63;4923086;28;45233;-44
2022/05/18 05:16:44;;;;;;;;;6.75;6.25;;;;;21.96;43.26;101575.31;4922474;28;45506;-44
2022/05/18 05:19:10;;;;;;;;;2.00;2.00;;;;;21.97;43.22;101576.16;4922414;28;45308;-45
2022/05/18 05:21:36;;;;;;;;;1.25;1.25;;;;;21.93;43.18;101572.78;4922876;28;45181;-47
2022/05/18 05:24:03;;;;;;;;;2.00;2.00;;;;;21.95;42.93;101572.69;4922644;28;45229;-45
2022/05/18 05:26:28;;;;;;;;;3.00;3.00;;;;;21.95;42.76;101584.28;4922465;28;45505;-47
2022/05/18 06:31:38;;;;;;;;;1.25;0.50;;;;;22.17;42.63;101631.38;5070783;23;45506;-47
2022/05/18 06:34:04;;;;;;;;;1.75;1.00;;;;;22.17;42.80;101626.03;4940506;28;45329;-46
2022/05/18 06:36:30;;;;;;;;;1.75;1.75;;;;;22.20;42.85;101632.09;4941251;28;46512;-45
2022/05/18 06:38:55;;;;;;;;;1.50;1.50;;;;;22.21;42.38;101625.81;4940386;28;45647;-45
2022/05/18 06:41:23;;;;;;;;;2.00;2.00;;;;;22.24;42.87;101622.97;4940712;28;46116;-48
2022/05/18 06:43:58;;;;;;;;;3.25;2.00;;;;;22.27;42.45;101632.66;4940806;28;45414;-46
2022/05/18 07:12:07;;;;;;;;;1.25;1.00;;;;;22.60;42.47;101626.56;4915870;28;75625;-47
2022/05/18 07:14:33;;;;;;;;;2.50;1.75;;;;;22.66;42.21;101628.94;4920974;28;45771;-49
2022/05/18 07:16:59;;;;;;;;;1.50;1.50;;;;;22.70;42.41;101626.97;4905555;28;45455;-49
2022/05/18 07:19:25;;;;;;;;;3.25;2.00;;;;;22.73;42.13;101626.84;4922864;28;45405;-48
2022/05/18 07:21:50;;;;;;;;;1.75;1.50;;;;;22.76;42.50;101631.19;4941756;28;47051;-47
2022/05/18 07:24:16;;;;;;;;;1.00;1.00;;;;;22.80;42.48;101624.69;4943976;28;45174;-48
2022/05/18 07:26:42;;;;;;;;;2.75;2.00;;;;;22.82;42.39;101622.81;4943539;28;45355;-46
2022/05/18 07:29:08;;;;;;;;;2.00;2.00;;;;;22.85;42.67;101625.31;4947228;28;45716;-49
2022/05/18 07:34:39;;;;;;;;;2.00;2.00;;;;;22.89;42.36;101625.09;4891181;29;45413;-56
2022/05/18 07:37:07;;;;;;;;;2.50;2.50;;;;;22.93;42.44;101632.97;4892791;29;45441;-55
2022/05/18 07:39:33;;;;;;;;;3.50;2.75;;;;;22.95;42.27;101629.25;4913947;28;45622;-52
2022/05/18 07:41:59;;;;;;;;;3.00;2.00;;;;;22.97;42.65;101627.38;4941121;28;47024;-48
2022/05/18 07:44:26;;;;;;;;;3.25;1.75;;;;;23.03;42.39;101624.38;4925361;28;45487;-50
2022/05/18 07:46:51;;;;;;;;;1.75;1.75;;;;;23.06;42.27;101623.34;4941565;28;46445;-49
2022/05/18 07:49:17;;;;;;;;;1.00;1.00;;;;;23.10;42.34;101630.25;4941701;28;45594;-49
2022/05/18 07:51:46;;;;;;;;;1.50;1.50;;;;;23.11;42.38;101623.09;4941771;28;46744;-48
2022/05/18 07:54:12;;;;;;;;;1.00;1.00;;;;;23.16;42.15;101627.28;4941866;28;45271;-53
2022/05/18 07:56:38;;;;;;;;;3.00;2.75;;;;;23.20;42.35;101628.00;4924045;28;45261;-49
2022/05/18 07:59:05;;;;;;;;;2.75;2.75;;;;;23.24;42.20;101620.66;4941287;28;45445;-47
2022/05/18 08:01:31;;;;;;;;;4.00;2.50;;;;;23.26;42.29;101622.31;4936557;28;45954;-47
2022/05/18 08:03:56;;;;;;;;;1.50;1.50;;;;;23.30;42.15;101623.88;4941420;28;45308;-51
2022/05/18 08:06:21;;;;;;;;;2.00;2.00;;;;;23.33;42.33;101623.72;4938073;28;45408;-50
2022/05/18 08:08:47;;;;;;;;;3.25;3.25;;;;;23.36;42.16;101623.53;4941613;28;45513;-52
2022/05/18 08:16:48;;;;;;;;;1.50;1.50;;;;;23.49;42.43;101622.88;4954560;28;45465;-47
2022/05/18 08:19:15;;;;;;;;;2.00;2.00;;;;;23.55;42.27;101627.91;4952439;28;45594;-50
2022/05/18 08:21:40;;;;;;;;;2.75;2.75;;;;;23.57;42.34;101620.63;4936208;28;46034;-46
2022/05/18 08:24:07;;;;;;;;;2.00;2.00;;;;;23.63;42.08;101617.59;4948136;28;45337;-51
2022/05/18 08:26:32;;;;;;;;;3.00;3.00;;;;;23.69;42.26;101619.09;4947903;28;45363;-49
2022/05/18 08:29:03;;;;;;;;;3.00;2.25;;;;;23.75;42.32;101620.53;4950394;28;45556;-45
2022/05/18 08:31:29;;;;;;;;;3.50;3.00;;;;;23.80;42.41;101627.41;4959880;28;45473;-58
2022/05/18 08:33:54;;;;;;;;;1.50;1.50;;;;;23.86;42.01;101626.16;4955136;28;45428;-46
2022/05/18 08:36:20;;;;;;;;;6.00;3.00;;;;;23.93;42.41;101619.53;4958717;28;45499;-58
2022/05/18 08:38:46;;;;;;;;;3.75;3.00;;;;;24.01;42.16;101619.09;4957896;28;45226;-56
2022/05/18 08:41:20;;;;;;;;;2.50;2.00;;;;;24.09;42.25;101622.22;4959175;28;46234;-53
2022/05/18 08:43:51;;;;;;;;;1.00;1.00;;;;;24.16;41.94;101620.03;4960459;28;45365;-55
2022/05/18 08:46:32;;;;;;;;;3.00;2.75;;;;;24.24;42.09;101612.41;4958770;28;45342;-56
2022/05/18 08:49:04;;;;;;;;;4.75;2.50;;;;;24.31;41.81;101616.47;4951214;28;45387;-50
2022/05/18 08:51:48;;;;;;;;;4.00;2.00;;;;;24.40;42.12;101615.06;4958345;28;45248;-52
2022/05/18 08:54:38;;;;;;;;;4.75;3.25;;;;;24.47;42.11;101615.56;4951497;28;45215;-51
2022/05/18 08:57:15;;;;;;;;;2.00;2.00;;;;;24.53;42.06;101617.00;4960527;28;45334;-52
2022/05/18 08:59:41;;;;;;;;;4.00;3.00;;;;;24.58;42.23;101612.22;4956130;28;45406;-48
2022/05/18 09:02:15;;;;;;;;;3.25;3.00;;;;;24.66;42.17;101610.84;4946746;28;45447;-49
2022/05/18 09:04:56;;;;;;;;;4.75;3.50;;;;;24.76;42.18;101607.63;4948680;28;45366;-55
2022/05/18 09:07:26;;;;;;;;;3.00;3.00;;;;;24.79;42.20;101600.25;4959358;28;45457;-47
2022/05/18 09:10:16;;;;;;;;;4.00;3.25;;;;;24.92;42.19;101599.50;4959071;28;45461;-54
2022/05/18 09:12:47;;;;;;;;;4.00;4.00;;;;;25.02;41.85;101599.75;4945084;28;46887;-48
2022/05/18 09:15:17;;;;;;;;;6.00;5.00;;;;;25.10;41.96;101597.47;4951502;28;45238;-44
2022/05/18 09:17:51;;;;;;;;;7.50;5.75;;;;;25.18;41.45;101605.06;4959536;28;45303;-53
2022/05/18 09:20:40;;;;;;;;;4.75;4.50;;;;;25.25;41.59;101607.25;4948520;28;45468;-49
2022/05/18 09:23:17;;;;;;;;;6.25;6.25;;;;;25.31;41.63;101595.28;4949900;28;45338;-46
2022/05/18 09:26:18;;;;;;;;;7.00;4.50;;;;;25.39;41.95;101598.34;4948680;28;45236;-54
2022/05/18 09:29:13;;;;;;;;;4.00;3.25;;;;;25.45;41.69;101597.13;4927524;28;45503;-55
2022/05/18 09:32:02;;;;;;;;;5.50;5.00;;;;;25.52;41.63;101586.81;4960199;28;45258;-55
2022/05/18 09:34:48;;;;;;;;;3.50;3.50;;;;;25.61;41.54;101594.31;4960321;28;46321;-51
2022/05/18 09:37:13;;;;;;;;;6.25;4.50;;;;;25.68;41.74;101592.94;4958322;28;45480;-58
2022/05/18 09:39:44;;;;;;;;;3.00;3.00;;;;;25.76;41.80;101589.72;4960024;28;45204;-57
2022/05/18 09:42:18;;;;;;;;;4.00;2.00;;;;;25.84;41.72;101583.88;4958585;28;45297;-55
2022/05/18 09:44:48;;;;;;;;;3.75;3.75;;;;;25.91;41.73;101590.56;4958652;28;45716;-56
2022/05/18 09:47:20;;;;;;;;;4.75;3.00;;;;;26.02;41.12;101587.16;4959394;28;45447;-54
2022/05/18 09:49:53;;;;;;;;;3.50;3.00;;;;;26.07;41.70;101583.22;4958911;28;45360;-56
2022/05/18 09:52:24;;;;;;;;;3.00;3.00;;;;;26.20;41.51;101580.59;4960076;28;45295;-54
2022/05/18 09:54:52;;;;;;;;;2.25;2.25;;;;;26.33;41.00;101582.47;4954978;28;45473;-47
2022/05/18 09:57:23;;;;;;;;;3.25;3.00;;;;;26.44;41.06;101579.91;4959710;28;45354;-53
2022/05/18 10:00:01;;;;;;;;;3.00;3.00;;;;;26.55;41.01;101574.63;4954393;28;45449;-53
2022/05/18 10:08:01;;;;;;;;;3.25;3.00;;;;;26.95;41.26;101572.84;4959012;28;45354;-52
2022/05/18 10:10:30;;;;;;;;;5.00;3.50;;;;;27.11;41.16;101569.91;4940831;28;45460;-49
2022/05/18 10:12:58;;;;;;;;;3.75;2.00;;;;;27.25;40.75;101565.25;4953363;28;45255;-53
2022/05/18 10:15:23;;;;;;;;;6.00;4.75;;;;;27.38;40.84;101558.97;4952412;28;46304;-51
2022/05/18 10:17:53;;;;;;;;;4.75;3.25;;;;;27.54;40.57;101556.88;4958673;28;45314;-54
2022/05/18 10:20:32;;;;;;;;;3.50;3.50;;;;;27.74;40.66;101555.41;4950990;28;45413;-56
2022/05/18 10:23:00;;;;;;;;;2.50;2.50;;;;;27.93;40.58;101558.59;4940758;28;45478;-49
2022/05/18 10:25:32;;;;;;;;;2.75;2.25;;;;;28.13;40.78;101549.88;4961542;28;46000;-55
2022/05/18 10:28:01;;;;;;;;;3.75;3.50;;;;;28.34;40.43;101550.06;4962943;28;45465;-53
2022/05/18 10:30:34;;;;;;;;;4.75;2.25;;;;;28.60;40.98;101546.31;4959052;28;45459;-47
2022/05/18 10:33:22;;;;;;;;;5.25;3.75;;;;;28.91;40.55;101535.81;4960950;28;45954;-45
2022/05/18 10:35:50;;;;;;;;;3.00;3.00;;;;;29.16;40.41;101538.25;4962942;28;46185;-48
2022/05/18 10:38:31;;;;;;;;;2.50;2.50;;;;;29.49;40.39;101530.25;4961697;28;45386;-46
2022/05/18 10:41:02;;;;;;;;;4.75;4.75;;;;;29.83;40.41;101528.28;4962706;28;45367;-50
2022/05/18 10:43:39;;;;;;;;;4.00;4.00;;;;;30.15;40.50;101526.56;4961358;28;45586;-48
2022/05/18 10:46:17;;;;;;;;;3.25;2.75;;;;;30.51;40.05;101524.41;4962767;28;45440;-48
2022/05/18 10:48:54;;;;;;;;;3.50;3.00;;;;;30.85;40.04;101517.91;4922699;28;45400;-57
2022/05/18 10:51:28;;;;;;;;;3.50;3.00;;;;;31.23;39.71;101525.34;4961792;28;45493;-55
2022/05/18 10:54:07;;;;;;;;;2.75;2.75;;;;;31.63;39.72;101515.44;4962207;28;45236;-56
2022/05/18 10:56:33;;;;;;;;;5.50;3.75;;;;;32.03;39.91;101519.03;4960941;28;46116;-54
2022/05/18 10:59:23;;;;;;;;;3.75;3.25;;;;;32.47;39.74;101519.41;4939391;28;45829;-52
2022/05/18 11:02:36;;;;;;;;;7.25;6.00;;;;;32.98;39.24;101521.84;4940702;28;45622;-51
2022/05/18 11:05:22;;;;;;;;;3.25;3.00;;;;;33.47;38.72;101513.41;4896822;28;45536;-54
2022/05/18 11:07:49;;;;;;;;;5.00;3.75;;;;;33.92;38.75;101514.41;4951661;28;46205;-53
2022/05/18 11:10:14;;;;;;;;;2.00;2.00;;;;;34.37;38.19;101509.84;4961881;28;45294;-54
2022/05/18 11:12:59;;;;;;;;;3.75;3.75;;;;;34.83;38.02;101514.03;4957237;28;45593;-51
2022/05/18 11:15:43;;;;;;;;;3.00;3.00;;;;;35.36;37.40;101519.41;4955418;28;45513;-56
2022/05/18 11:21:05;;;;;;;;;2.75;2.75;;;;;36.24;36.79;101525.28;5005618;23;45636;-50
2022/05/18 11:23:30;;;;;;;;;3.25;2.75;;;;;36.66;36.60;101532.41;4981793;28;45452;-53
2022/05/18 11:26:01;;;;;;;;;13.75;10.75;;;;;37.04;35.78;101523.56;4980021;28;45328;-53
2022/05/18 11:28:57;;;;;;;;;1.75;1.75;;;;;37.39;35.69;101522.22;4980966;28;46661;-53
2022/05/18 11:31:34;;;;;;;;;4.00;2.25;;;;;37.77;35.98;101515.94;4929476;28;45349;-59
2022/05/18 11:34:33;;;;;;;;;2.50;2.50;;;;;38.24;35.25;101502.19;4978404;28;45681;-49
2022/05/18 11:37:28;;;;;;;;;2.75;2.75;;;;;38.65;34.95;101505.38;4960161;28;45674;-49
2022/05/18 11:39:59;;;;;;;;;3.00;3.00;;;;;39.06;34.82;101498.53;4980125;28;45403;-53
2022/05/18 11:43:29;;;;;;;;;1.00;1.00;;;;;39.45;34.30;101500.06;4981288;28;45326;-52
2022/05/18 11:46:32;;;;;;;;;3.00;3.00;;;;;39.89;33.99;101497.31;4955424;28;45176;-54
2022/05/18 11:49:21;;;;;;;;;3.75;3.00;;;;;40.17;33.72;101491.84;4960194;28;45541;-54
2022/05/18 11:52:17;;;;;;;;;3.50;2.25;;;;;40.42;33.31;101496.91;4966348;28;46229;-52
2022/05/18 11:55:07;;;;;;;;;2.25;2.25;;;;;40.72;33.14;101494.75;4979125;28;45375;-53
2022/05/18 11:57:54;;;;;;;;;2.75;2.25;;;;;41.00;32.56;101491.09;4980574;28;45429;-52
2022/05/18 12:03:25;;;;;;;;;3.25;3.25;;;;;41.30;32.22;101493.50;4979854;28;45354;-53
2022/05/18 12:06:10;;;;;;;;;4.25;2.25;;;;;41.38;31.20;101486.94;4978694;28;45386;-51
2022/05/18 12:09:06;;;;;;;;;4.50;4.50;;;;;41.43;31.00;101488.03;4978716;28;45320;-52
2022/05/18 12:12:10;;;;;;;;;4.25;2.25;;;;;41.40;30.64;101482.91;4957993;28;45637;-51
2022/05/18 12:14:35;;;;;;;;;4.50;4.00;;;;;41.34;30.46;101485.69;4878192;29;46292;-50
2022/05/18 12:17:13;;;;;;;;;3.50;3.00;;;;;41.26;30.36;101482.03;4874741;29;45434;-53
2022/05/18 12:19:57;;;;;;;;;2.25;2.25;;;;;41.15;30.05;101481.78;4928898;28;45785;-51
2022/05/18 12:22:38;;;;;;;;;3.00;3.00;;;;;40.96;29.04;101467.72;4977920;28;45681;-51
2022/05/18 12:25:07;;;;;;;;;2.75;2.75;;;;;40.82;29.17;101469.59;4980439;28;46110;-49
2022/05/18 12:27:33;;;;;;;;;2.75;2.25;;;;;40.75;29.08;101466.78;4979602;28;45558;-52
2022/05/18 12:30:05;;;;;;;;;2.75;2.75;;;;;40.73;28.89;101457.03;4980722;28;45301;-52
2022/05/18 12:32:31;;;;;;;;;2.75;2.75;;;;;40.74;28.58;101459.63;4980602;28;45262;-53
2022/05/18 12:35:02;;;;;;;;;2.00;1.25;;;;;40.73;28.48;101457.03;4979604;28;46034;-51
2022/05/18 12:37:32;;;;;;;;;3.75;2.75;;;;;40.72;28.29;101458.97;4980591;28;45253;-48
2022/05/18 12:40:06;;;;;;;;;0.25;0.25;;;;;40.73;28.12;101459.78;4979539;28;45331;-51
2022/05/18 12:42:37;;;;;;;;;1.75;1.00;;;;;40.80;27.78;101451.56;4980261;28;45360;-48
2022/05/18 12:45:21;;;;;;;;;1.25;1.25;;;;;40.92;28.05;101455.41;4960656;28;48379;-48
2022/05/18 12:47:52;;;;;;;;;0.25;0.25;;;;;41.03;27.92;101454.00;4979962;28;45349;-49
2022/05/18 12:50:29;;;;;;;;;1.75;1.75;;;;;41.21;27.71;101454.25;4980353;28;45202;-50
2022/05/18 12:52:58;;;;;;;;;2.25;1.00;;;;;41.36;27.23;101453.22;4979436;28;45282;-49
2022/05/18 12:55:42;;;;;;;;;1.75;0.25;;;;;41.56;26.98;101445.84;4980021;28;47268;-49
2022/05/18 12:58:10;;;;;;;;;1.00;1.00;;;;;41.79;27.18;101441.81;4979022;28;45340;-51
2022/05/18 13:01:04;;;;;;;;;1.00;1.00;;;;;42.05;27.21;101443.72;4975982;28;45309;-52
2022/05/18 13:03:50;;;;;;;;;0.00;0.00;;;;;42.32;27.43;101445.63;4960123;28;45361;-51
2022/05/18 13:06:23;;;;;;;;;1.00;1.00;;;;;42.49;27.14;101437.69;4979035;28;45282;-50
2022/05/18 13:08:59;;;;;;;;;1.50;1.50;;;;;42.67;26.76;101434.19;4979607;28;45344;-50
2022/05/18 13:11:30;;;;;;;;;1.00;1.00;;;;;42.92;26.73;101431.56;4968617;28;45323;-48
2022/05/18 13:14:01;;;;;;;;;1.00;1.00;;;;;43.19;26.20;101436.97;4948581;28;45551;-52
2022/05/18 13:16:38;;;;;;;;;1.00;1.00;;;;;43.49;26.07;101430.78;4968215;28;45173;-50
2022/05/18 13:19:28;;;;;;;;;0.75;0.00;;;;;43.74;25.87;101433.56;4978598;28;45337;-49
2022/05/18 13:22:08;;;;;;;;;1.25;1.25;;;;;44.02;25.98;101412.03;4968067;28;45484;-51
2022/05/18 13:24:41;;;;;;;;;2.50;1.00;;;;;44.19;25.62;101421.41;4957363;28;45418;-49
2022/05/18 13:27:35;;;;;;;;;1.25;0.75;;;;;44.39;25.51;101415.66;4978578;28;45338;-50
2022/05/18 13:30:07;;;;;;;;;2.75;2.75;;;;;44.57;25.52;101403.72;4971873;28;45224;-50
2022/05/18 13:32:34;;;;;;;;;1.75;1.25;;;;;44.85;25.29;101412.56;4950728;28;45463;-51
2022/05/18 13:35:10;;;;;;;;;2.00;0.25;;;;;45.05;25.28;101409.47;4978752;28;45472;-49